sensor_id;sensor_type;location;lat;lon;timestamp;P1;durP1;ratioP1;P2;durP2;ratioP2
28246;SDS011;66191;53.178;22.058;2023-07-31T00:01:19;15.45;;;10.20;;
28246;SDS011;66191;53.178;22.058;2023-07-31T00:03:50;13.60;;;10.10;;
28246;SDS011;66191;53.178;22.058;2023-07-31T00:06:24;14.23;;;10.05;;
28246;SDS011;66191;53.178;22.058;2023-07-31T00:08:57;13.75;;;9.40;;
28246;SDS011;66191;53.178;22.058;2023-07-31T00:11:28;13.70;;;11.05;;
28246;SDS011;66191;53.178;22.058;2023-07-31T00:14:03;19.00;;;12.55;;
28246;SDS011;66191;53.178;22.058;2023-07-31T00:16:41;13.35;;;11.07;;
28246;SDS011;66191;53.178;22.058;2023-07-31T00:19:18;13.05;;;10.15;;
28246;SDS011;66191;53.178;22.058;2023-07-31T00:21:53;16.25;;;10.80;;
28246;SDS011;66191;53.178;22.058;2023-07-31T00:24:30;16.85;;;11.52;;
28246;SDS011;66191;53.178;22.058;2023-07-31T00:27:02;11.98;;;9.73;;
28246;SDS011;66191;53.178;22.058;2023-07-31T00:29:34;12.85;;;9.63;;
28246;SDS011;66191;53.178;22.058;2023-07-31T00:32:09;13.77;;;8.82;;
28246;SDS011;66191;53.178;22.058;2023-07-31T00:34:43;10.40;;;8.20;;
28246;SDS011;66191;53.178;22.058;2023-07-31T00:37:20;10.85;;;8.57;;
28246;SDS011;66191;53.178;22.058;2023-07-31T00:39:51;13.80;;;9.23;;
28246;SDS011;66191;53.178;22.058;2023-07-31T00:42:24;10.85;;;8.25;;
28246;SDS011;66191;53.178;22.058;2023-07-31T00:44:56;8.63;;;6.85;;
28246;SDS011;66191;53.178;22.058;2023-07-31T00:47:33;8.60;;;6.88;;
28246;SDS011;66191;53.178;22.058;2023-07-31T00:50:08;12.73;;;8.40;;
28246;SDS011;66191;53.178;22.058;2023-07-31T00:52:42;26.02;;;12.50;;
28246;SDS011;66191;53.178;22.058;2023-07-31T00:55:13;10.90;;;7.70;;
28246;SDS011;66191;53.178;22.058;2023-07-31T00:57:45;8.90;;;7.47;;
28246;SDS011;66191;53.178;22.058;2023-07-31T01:00:18;7.65;;;6.70;;
28246;SDS011;66191;53.178;22.058;2023-07-31T01:02:50;9.73;;;6.50;;
28246;SDS011;66191;53.178;22.058;2023-07-31T01:05:32;6.63;;;5.85;;
28246;SDS011;66191;53.178;22.058;2023-07-31T01:08:15;10.13;;;5.47;;
28246;SDS011;66191;53.178;22.058;2023-07-31T01:10:59;8.60;;;5.70;;
28246;SDS011;66191;53.178;22.058;2023-07-31T01:13:44;7.18;;;5.90;;
28246;SDS011;66191;53.178;22.058;2023-07-31T01:16:16;7.15;;;5.20;;
28246;SDS011;66191;53.178;22.058;2023-07-31T01:18:47;5.88;;;5.28;;
28246;SDS011;66191;53.178;22.058;2023-07-31T01:21:23;8.27;;;5.22;;
28246;SDS011;66191;53.178;22.058;2023-07-31T01:24:28;6.53;;;5.35;;
28246;SDS011;66191;53.178;22.058;2023-07-31T01:27:05;7.45;;;5.03;;
28246;SDS011;66191;53.178;22.058;2023-07-31T01:29:53;6.55;;;5.60;;
28246;SDS011;66191;53.178;22.058;2023-07-31T01:32:31;8.32;;;5.43;;
28246;SDS011;66191;53.178;22.058;2023-07-31T01:35:04;7.55;;;5.75;;
28246;SDS011;66191;53.178;22.058;2023-07-31T01:37:39;7.05;;;5.90;;
28246;SDS011;66191;53.178;22.058;2023-07-31T01:40:15;9.02;;;6.22;;
28246;SDS011;66191;53.178;22.058;2023-07-31T01:42:49;9.43;;;6.00;;
28246;SDS011;66191;53.178;22.058;2023-07-31T01:45:21;9.05;;;6.28;;
28246;SDS011;66191;53.178;22.058;2023-07-31T01:47:52;6.80;;;6.10;;
28246;SDS011;66191;53.178;22.058;2023-07-31T01:50:33;7.82;;;6.30;;
28246;SDS011;66191;53.178;22.058;2023-07-31T01:53:10;8.07;;;6.43;;
28246;SDS011;66191;53.178;22.058;2023-07-31T01:55:42;9.48;;;6.13;;
28246;SDS011;66191;53.178;22.058;2023-07-31T01:58:18;7.88;;;6.25;;
28246;SDS011;66191;53.178;22.058;2023-07-31T02:00:50;7.72;;;5.95;;
28246;SDS011;66191;53.178;22.058;2023-07-31T02:03:27;7.10;;;6.30;;
28246;SDS011;66191;53.178;22.058;2023-07-31T02:06:00;10.07;;;6.43;;
28246;SDS011;66191;53.178;22.058;2023-07-31T02:08:31;11.52;;;6.65;;
28246;SDS011;66191;53.178;22.058;2023-07-31T02:11:11;8.35;;;6.75;;
28246;SDS011;66191;53.178;22.058;2023-07-31T02:13:45;9.27;;;7.10;;
28246;SDS011;66191;53.178;22.058;2023-07-31T02:16:20;15.93;;;6.93;;
28246;SDS011;66191;53.178;22.058;2023-07-31T02:18:59;7.70;;;6.00;;
28246;SDS011;66191;53.178;22.058;2023-07-31T02:21:32;9.50;;;5.95;;
28246;SDS011;66191;53.178;22.058;2023-07-31T02:24:06;9.00;;;6.93;;
28246;SDS011;66191;53.178;22.058;2023-07-31T02:26:38;9.20;;;6.75;;
28246;SDS011;66191;53.178;22.058;2023-07-31T02:29:13;7.22;;;5.60;;
28246;SDS011;66191;53.178;22.058;2023-07-31T02:31:50;7.38;;;6.00;;
28246;SDS011;66191;53.178;22.058;2023-07-31T02:34:21;10.45;;;6.07;;
28246;SDS011;66191;53.178;22.058;2023-07-31T02:36:53;8.90;;;5.78;;
28246;SDS011;66191;53.178;22.058;2023-07-31T02:39:24;8.45;;;6.18;;
28246;SDS011;66191;53.178;22.058;2023-07-31T02:42:05;7.95;;;6.10;;
28246;SDS011;66191;53.178;22.058;2023-07-31T02:44:39;15.75;;;7.57;;
28246;SDS011;66191;53.178;22.058;2023-07-31T02:47:10;8.90;;;6.60;;
28246;SDS011;66191;53.178;22.058;2023-07-31T02:49:44;8.23;;;6.13;;
28246;SDS011;66191;53.178;22.058;2023-07-31T02:52:17;10.32;;;6.55;;
28246;SDS011;66191;53.178;22.058;2023-07-31T02:54:51;31.63;;;13.32;;
28246;SDS011;66191;53.178;22.058;2023-07-31T02:57:22;11.60;;;7.20;;
28246;SDS011;66191;53.178;22.058;2023-07-31T02:59:56;8.45;;;6.20;;
28246;SDS011;66191;53.178;22.058;2023-07-31T03:02:30;9.90;;;5.90;;
28246;SDS011;66191;53.178;22.058;2023-07-31T03:05:07;10.30;;;5.85;;
28246;SDS011;66191;53.178;22.058;2023-07-31T03:07:38;8.10;;;6.05;;
28246;SDS011;66191;53.178;22.058;2023-07-31T03:10:11;10.18;;;6.57;;
28246;SDS011;66191;53.178;22.058;2023-07-31T03:12:46;8.15;;;5.78;;
28246;SDS011;66191;53.178;22.058;2023-07-31T03:15:23;8.85;;;5.72;;
28246;SDS011;66191;53.178;22.058;2023-07-31T03:17:56;10.93;;;6.20;;
28246;SDS011;66191;53.178;22.058;2023-07-31T03:20:29;13.20;;;5.78;;
28246;SDS011;66191;53.178;22.058;2023-07-31T03:23:01;8.10;;;5.45;;
28246;SDS011;66191;53.178;22.058;2023-07-31T03:25:41;7.25;;;5.43;;
28246;SDS011;66191;53.178;22.058;2023-07-31T03:28:28;20.40;;;6.63;;
28246;SDS011;66191;53.178;22.058;2023-07-31T03:31:02;8.48;;;5.72;;
28246;SDS011;66191;53.178;22.058;2023-07-31T03:33:41;12.25;;;6.43;;
28246;SDS011;66191;53.178;22.058;2023-07-31T03:36:15;7.88;;;5.55;;
28246;SDS011;66191;53.178;22.058;2023-07-31T03:38:52;8.93;;;6.53;;
28246;SDS011;66191;53.178;22.058;2023-07-31T03:41:24;10.27;;;6.53;;
28246;SDS011;66191;53.178;22.058;2023-07-31T03:43:58;9.07;;;5.45;;
28246;SDS011;66191;53.178;22.058;2023-07-31T03:46:33;5.88;;;5.28;;
28246;SDS011;66191;53.178;22.058;2023-07-31T03:49:06;7.38;;;5.00;;
28246;SDS011;66191;53.178;22.058;2023-07-31T03:51:37;5.65;;;5.05;;
28246;SDS011;66191;53.178;22.058;2023-07-31T03:54:09;10.30;;;6.57;;
28246;SDS011;66191;53.178;22.058;2023-07-31T03:56:41;6.40;;;4.88;;
28246;SDS011;66191;53.178;22.058;2023-07-31T03:59:13;5.88;;;4.93;;
28246;SDS011;66191;53.178;22.058;2023-07-31T04:01:48;8.93;;;5.20;;
28246;SDS011;66191;53.178;22.058;2023-07-31T04:04:25;6.15;;;4.68;;
28246;SDS011;66191;53.178;22.058;2023-07-31T04:07:05;5.82;;;5.00;;
28246;SDS011;66191;53.178;22.058;2023-07-31T04:09:40;6.40;;;4.65;;
28246;SDS011;66191;53.178;22.058;2023-07-31T04:12:14;5.18;;;4.68;;
28246;SDS011;66191;53.178;22.058;2023-07-31T04:14:48;5.03;;;4.43;;
28246;SDS011;66191;53.178;22.058;2023-07-31T04:17:26;5.22;;;4.72;;
28246;SDS011;66191;53.178;22.058;2023-07-31T04:20:02;6.82;;;4.13;;
28246;SDS011;66191;53.178;22.058;2023-07-31T04:22:34;6.10;;;3.45;;
28246;SDS011;66191;53.178;22.058;2023-07-31T04:25:08;5.18;;;4.10;;
28246;SDS011;66191;53.178;22.058;2023-07-31T04:27:43;13.10;;;4.50;;
28246;SDS011;66191;53.178;22.058;2023-07-31T04:30:17;7.32;;;3.83;;
28246;SDS011;66191;53.178;22.058;2023-07-31T04:32:50;5.63;;;3.65;;
28246;SDS011;66191;53.178;22.058;2023-07-31T04:35:27;5.00;;;4.03;;
28246;SDS011;66191;53.178;22.058;2023-07-31T04:37:58;4.32;;;3.63;;
28246;SDS011;66191;53.178;22.058;2023-07-31T04:40:38;4.88;;;3.90;;
28246;SDS011;66191;53.178;22.058;2023-07-31T04:43:10;4.93;;;4.03;;
28246;SDS011;66191;53.178;22.058;2023-07-31T04:45:45;9.77;;;4.15;;
28246;SDS011;66191;53.178;22.058;2023-07-31T04:48:27;7.53;;;3.72;;
28246;SDS011;66191;53.178;22.058;2023-07-31T04:51:03;5.85;;;4.25;;
28246;SDS011;66191;53.178;22.058;2023-07-31T04:53:34;5.38;;;4.50;;
28246;SDS011;66191;53.178;22.058;2023-07-31T04:56:07;8.55;;;4.25;;
28246;SDS011;66191;53.178;22.058;2023-07-31T04:58:54;4.72;;;3.83;;
28246;SDS011;66191;53.178;22.058;2023-07-31T05:01:29;4.20;;;3.35;;
28246;SDS011;66191;53.178;22.058;2023-07-31T05:04:06;5.95;;;3.70;;
28246;SDS011;66191;53.178;22.058;2023-07-31T05:06:39;7.18;;;4.35;;
28246;SDS011;66191;53.178;22.058;2023-07-31T05:09:14;8.00;;;4.80;;
28246;SDS011;66191;53.178;22.058;2023-07-31T05:11:52;4.75;;;4.25;;
28246;SDS011;66191;53.178;22.058;2023-07-31T05:14:40;5.37;;;4.23;;
28246;SDS011;66191;53.178;22.058;2023-07-31T05:17:13;8.15;;;4.22;;
28246;SDS011;66191;53.178;22.058;2023-07-31T05:19:48;5.00;;;3.85;;
28246;SDS011;66191;53.178;22.058;2023-07-31T05:22:23;6.00;;;3.90;;
28246;SDS011;66191;53.178;22.058;2023-07-31T05:25:01;8.13;;;4.00;;
28246;SDS011;66191;53.178;22.058;2023-07-31T05:27:35;4.88;;;4.35;;
28246;SDS011;66191;53.178;22.058;2023-07-31T05:30:13;5.45;;;3.95;;
28246;SDS011;66191;53.178;22.058;2023-07-31T05:32:47;4.03;;;3.65;;
28246;SDS011;66191;53.178;22.058;2023-07-31T05:35:22;4.85;;;3.97;;
28246;SDS011;66191;53.178;22.058;2023-07-31T05:37:57;4.55;;;4.15;;
28246;SDS011;66191;53.178;22.058;2023-07-31T05:40:35;5.50;;;3.85;;
28246;SDS011;66191;53.178;22.058;2023-07-31T05:43:06;6.88;;;4.20;;
28246;SDS011;66191;53.178;22.058;2023-07-31T05:45:41;6.35;;;3.75;;
28246;SDS011;66191;53.178;22.058;2023-07-31T05:48:20;4.20;;;3.80;;
28246;SDS011;66191;53.178;22.058;2023-07-31T05:50:59;4.20;;;3.67;;
28246;SDS011;66191;53.178;22.058;2023-07-31T05:53:30;3.65;;;3.35;;
28246;SDS011;66191;53.178;22.058;2023-07-31T05:56:18;8.80;;;3.75;;
28246;SDS011;66191;53.178;22.058;2023-07-31T05:58:50;5.25;;;3.42;;
28246;SDS011;66191;53.178;22.058;2023-07-31T06:01:32;4.53;;;3.63;;
28246;SDS011;66191;53.178;22.058;2023-07-31T06:04:08;4.38;;;3.83;;
28246;SDS011;66191;53.178;22.058;2023-07-31T06:06:45;7.47;;;4.07;;
28246;SDS011;66191;53.178;22.058;2023-07-31T06:09:21;5.88;;;3.83;;
28246;SDS011;66191;53.178;22.058;2023-07-31T06:12:10;3.95;;;3.55;;
28246;SDS011;66191;53.178;22.058;2023-07-31T06:14:51;5.20;;;3.60;;
28246;SDS011;66191;53.178;22.058;2023-07-31T06:17:25;6.97;;;3.30;;
28246;SDS011;66191;53.178;22.058;2023-07-31T06:20:02;4.65;;;3.08;;
28246;SDS011;66191;53.178;22.058;2023-07-31T06:22:39;6.15;;;3.88;;
28246;SDS011;66191;53.178;22.058;2023-07-31T06:25:14;8.45;;;3.60;;
28246;SDS011;66191;53.178;22.058;2023-07-31T06:27:45;7.65;;;3.40;;
28246;SDS011;66191;53.178;22.058;2023-07-31T06:30:23;5.70;;;3.05;;
28246;SDS011;66191;53.178;22.058;2023-07-31T06:32:55;5.95;;;3.70;;
28246;SDS011;66191;53.178;22.058;2023-07-31T06:35:30;5.35;;;3.75;;
28246;SDS011;66191;53.178;22.058;2023-07-31T06:38:04;6.22;;;3.05;;
28246;SDS011;66191;53.178;22.058;2023-07-31T06:40:40;3.28;;;2.92;;
28246;SDS011;66191;53.178;22.058;2023-07-31T06:43:14;5.13;;;2.97;;
28246;SDS011;66191;53.178;22.058;2023-07-31T06:45:47;7.57;;;2.47;;
28246;SDS011;66191;53.178;22.058;2023-07-31T06:48:22;6.32;;;3.15;;
28246;SDS011;66191;53.178;22.058;2023-07-31T06:50:54;8.50;;;2.70;;
28246;SDS011;66191;53.178;22.058;2023-07-31T06:53:28;2.97;;;2.67;;
28246;SDS011;66191;53.178;22.058;2023-07-31T06:55:59;4.65;;;3.00;;
28246;SDS011;66191;53.178;22.058;2023-07-31T06:58:36;5.30;;;2.70;;
28246;SDS011;66191;53.178;22.058;2023-07-31T07:01:08;6.60;;;3.17;;
28246;SDS011;66191;53.178;22.058;2023-07-31T07:03:41;4.53;;;2.50;;
28246;SDS011;66191;53.178;22.058;2023-07-31T07:06:19;6.00;;;2.72;;
28246;SDS011;66191;53.178;22.058;2023-07-31T07:08:59;4.38;;;2.30;;
28246;SDS011;66191;53.178;22.058;2023-07-31T07:11:31;4.63;;;2.50;;
28246;SDS011;66191;53.178;22.058;2023-07-31T07:14:06;4.43;;;2.95;;
28246;SDS011;66191;53.178;22.058;2023-07-31T07:16:45;6.35;;;3.00;;
28246;SDS011;66191;53.178;22.058;2023-07-31T07:19:25;4.57;;;2.92;;
28246;SDS011;66191;53.178;22.058;2023-07-31T07:22:01;8.68;;;2.70;;
28246;SDS011;66191;53.178;22.058;2023-07-31T07:24:37;5.60;;;2.85;;
28246;SDS011;66191;53.178;22.058;2023-07-31T07:27:09;5.28;;;3.05;;
28246;SDS011;66191;53.178;22.058;2023-07-31T07:29:45;5.38;;;2.80;;
28246;SDS011;66191;53.178;22.058;2023-07-31T07:32:21;4.28;;;3.03;;
28246;SDS011;66191;53.178;22.058;2023-07-31T07:34:52;6.15;;;3.30;;
28246;SDS011;66191;53.178;22.058;2023-07-31T07:37:24;7.55;;;3.38;;
28246;SDS011;66191;53.178;22.058;2023-07-31T07:39:58;3.55;;;2.80;;
28246;SDS011;66191;53.178;22.058;2023-07-31T07:42:30;5.40;;;3.13;;
28246;SDS011;66191;53.178;22.058;2023-07-31T07:45:06;8.50;;;3.10;;
28246;SDS011;66191;53.178;22.058;2023-07-31T07:47:41;4.22;;;2.83;;
28246;SDS011;66191;53.178;22.058;2023-07-31T07:50:12;7.55;;;3.38;;
28246;SDS011;66191;53.178;22.058;2023-07-31T07:52:44;8.48;;;2.95;;
28246;SDS011;66191;53.178;22.058;2023-07-31T07:55:21;6.07;;;2.88;;
28246;SDS011;66191;53.178;22.058;2023-07-31T07:57:58;5.50;;;3.17;;
28246;SDS011;66191;53.178;22.058;2023-07-31T08:00:30;3.85;;;2.80;;
28246;SDS011;66191;53.178;22.058;2023-07-31T08:05:49;4.93;;;3.22;;
28246;SDS011;66191;53.178;22.058;2023-07-31T08:08:31;5.53;;;2.83;;
28246;SDS011;66191;53.178;22.058;2023-07-31T08:11:06;5.15;;;2.85;;
28246;SDS011;66191;53.178;22.058;2023-07-31T08:13:40;5.38;;;3.30;;
28246;SDS011;66191;53.178;22.058;2023-07-31T08:16:21;4.55;;;2.78;;
28246;SDS011;66191;53.178;22.058;2023-07-31T08:19:18;5.78;;;2.92;;
28246;SDS011;66191;53.178;22.058;2023-07-31T08:21:50;3.20;;;2.90;;
28246;SDS011;66191;53.178;22.058;2023-07-31T08:24:29;4.65;;;3.10;;
28246;SDS011;66191;53.178;22.058;2023-07-31T08:27:16;5.60;;;2.92;;
28246;SDS011;66191;53.178;22.058;2023-07-31T08:29:53;4.22;;;2.75;;
28246;SDS011;66191;53.178;22.058;2023-07-31T08:32:26;6.05;;;3.20;;
28246;SDS011;66191;53.178;22.058;2023-07-31T08:35:00;8.10;;;3.22;;
28246;SDS011;66191;53.178;22.058;2023-07-31T08:37:37;4.18;;;3.00;;
28246;SDS011;66191;53.178;22.058;2023-07-31T08:40:18;4.78;;;3.50;;
28246;SDS011;66191;53.178;22.058;2023-07-31T08:45:40;6.72;;;2.70;;
28246;SDS011;66191;53.178;22.058;2023-07-31T08:49:06;4.65;;;2.95;;
28246;SDS011;66191;53.178;22.058;2023-07-31T08:51:59;9.00;;;2.95;;
28246;SDS011;66191;53.178;22.058;2023-07-31T08:54:36;5.50;;;2.40;;
28246;SDS011;66191;53.178;22.058;2023-07-31T08:57:10;4.20;;;2.35;;
28246;SDS011;66191;53.178;22.058;2023-07-31T08:59:47;6.05;;;2.30;;
28246;SDS011;66191;53.178;22.058;2023-07-31T09:02:20;6.85;;;2.45;;
28246;SDS011;66191;53.178;22.058;2023-07-31T09:04:54;4.65;;;2.25;;
28246;SDS011;66191;53.178;22.058;2023-07-31T09:07:28;4.22;;;2.33;;
28246;SDS011;66191;53.178;22.058;2023-07-31T09:10:06;3.30;;;2.33;;
28246;SDS011;66191;53.178;22.058;2023-07-31T09:12:38;4.68;;;2.60;;
28246;SDS011;66191;53.178;22.058;2023-07-31T09:15:19;4.63;;;2.60;;
28246;SDS011;66191;53.178;22.058;2023-07-31T09:18:05;5.80;;;2.90;;
28246;SDS011;66191;53.178;22.058;2023-07-31T09:20:38;5.80;;;2.80;;
28246;SDS011;66191;53.178;22.058;2023-07-31T09:23:10;4.20;;;2.85;;
28246;SDS011;66191;53.178;22.058;2023-07-31T09:25:45;5.55;;;2.72;;
28246;SDS011;66191;53.178;22.058;2023-07-31T09:28:17;5.47;;;2.58;;
28246;SDS011;66191;53.178;22.058;2023-07-31T09:30:57;4.43;;;2.60;;
28246;SDS011;66191;53.178;22.058;2023-07-31T09:33:36;5.50;;;2.63;;
28246;SDS011;66191;53.178;22.058;2023-07-31T09:36:25;6.15;;;2.53;;
28246;SDS011;66191;53.178;22.058;2023-07-31T09:39:01;5.75;;;2.50;;
28246;SDS011;66191;53.178;22.058;2023-07-31T09:41:36;7.60;;;2.65;;
28246;SDS011;66191;53.178;22.058;2023-07-31T09:44:16;8.55;;;2.42;;
28246;SDS011;66191;53.178;22.058;2023-07-31T09:46:55;8.10;;;2.47;;
28246;SDS011;66191;53.178;22.058;2023-07-31T09:49:45;5.97;;;2.55;;
28246;SDS011;66191;53.178;22.058;2023-07-31T09:52:21;5.70;;;2.63;;
28246;SDS011;66191;53.178;22.058;2023-07-31T09:55:01;7.15;;;2.55;;
28246;SDS011;66191;53.178;22.058;2023-07-31T09:57:39;3.58;;;2.00;;
28246;SDS011;66191;53.178;22.058;2023-07-31T10:00:13;4.53;;;2.33;;
28246;SDS011;66191;53.178;22.058;2023-07-31T10:02:55;6.60;;;2.60;;
28246;SDS011;66191;53.178;22.058;2023-07-31T10:05:34;5.03;;;2.40;;
28246;SDS011;66191;53.178;22.058;2023-07-31T10:08:13;4.05;;;2.38;;
28246;SDS011;66191;53.178;22.058;2023-07-31T10:10:52;4.35;;;2.15;;
28246;SDS011;66191;53.178;22.058;2023-07-31T10:13:23;3.97;;;2.03;;
28246;SDS011;66191;53.178;22.058;2023-07-31T10:15:58;4.60;;;2.00;;
28246;SDS011;66191;53.178;22.058;2023-07-31T10:18:34;5.80;;;2.15;;
28246;SDS011;66191;53.178;22.058;2023-07-31T10:21:11;4.65;;;2.03;;
28246;SDS011;66191;53.178;22.058;2023-07-31T10:23:42;3.13;;;1.90;;
28246;SDS011;66191;53.178;22.058;2023-07-31T10:26:18;3.92;;;2.38;;
28246;SDS011;66191;53.178;22.058;2023-07-31T10:28:50;5.75;;;2.40;;
28246;SDS011;66191;53.178;22.058;2023-07-31T10:31:33;5.80;;;2.30;;
28246;SDS011;66191;53.178;22.058;2023-07-31T10:34:10;5.22;;;2.20;;
28246;SDS011;66191;53.178;22.058;2023-07-31T10:36:46;3.78;;;1.90;;
28246;SDS011;66191;53.178;22.058;2023-07-31T10:39:38;6.55;;;2.25;;
28246;SDS011;66191;53.178;22.058;2023-07-31T10:42:10;5.32;;;2.10;;
28246;SDS011;66191;53.178;22.058;2023-07-31T10:44:46;8.15;;;2.05;;
28246;SDS011;66191;53.178;22.058;2023-07-31T10:47:18;4.97;;;2.40;;
28246;SDS011;66191;53.178;22.058;2023-07-31T10:50:16;4.10;;;2.10;;
28246;SDS011;66191;53.178;22.058;2023-07-31T10:52:58;6.13;;;2.20;;
28246;SDS011;66191;53.178;22.058;2023-07-31T10:55:32;5.20;;;2.30;;
28246;SDS011;66191;53.178;22.058;2023-07-31T10:58:10;6.13;;;2.05;;
28246;SDS011;66191;53.178;22.058;2023-07-31T11:00:47;5.88;;;2.20;;
28246;SDS011;66191;53.178;22.058;2023-07-31T11:03:24;5.43;;;2.25;;
28246;SDS011;66191;53.178;22.058;2023-07-31T11:06:03;4.32;;;2.00;;
28246;SDS011;66191;53.178;22.058;2023-07-31T11:08:40;5.20;;;2.00;;
28246;SDS011;66191;53.178;22.058;2023-07-31T11:11:12;2.85;;;2.00;;
28246;SDS011;66191;53.178;22.058;2023-07-31T11:13:45;7.57;;;2.05;;
28246;SDS011;66191;53.178;22.058;2023-07-31T11:16:23;9.07;;;2.00;;
28246;SDS011;66191;53.178;22.058;2023-07-31T11:18:57;3.30;;;1.75;;
28246;SDS011;66191;53.178;22.058;2023-07-31T11:21:38;4.95;;;1.95;;
28246;SDS011;66191;53.178;22.058;2023-07-31T11:24:14;4.80;;;1.90;;
28246;SDS011;66191;53.178;22.058;2023-07-31T11:26:54;5.00;;;1.63;;
28246;SDS011;66191;53.178;22.058;2023-07-31T11:29:35;7.03;;;1.90;;
28246;SDS011;66191;53.178;22.058;2023-07-31T11:32:17;5.57;;;1.80;;
28246;SDS011;66191;53.178;22.058;2023-07-31T11:35:01;5.32;;;1.88;;
28246;SDS011;66191;53.178;22.058;2023-07-31T11:38:07;6.75;;;1.63;;
28246;SDS011;66191;53.178;22.058;2023-07-31T11:40:48;3.10;;;1.50;;
28246;SDS011;66191;53.178;22.058;2023-07-31T11:43:23;6.18;;;1.80;;
28246;SDS011;66191;53.178;22.058;2023-07-31T11:45:59;5.55;;;2.03;;
28246;SDS011;66191;53.178;22.058;2023-07-31T11:48:46;2.60;;;1.52;;
28246;SDS011;66191;53.178;22.058;2023-07-31T11:51:26;2.47;;;1.50;;
28246;SDS011;66191;53.178;22.058;2023-07-31T11:54:06;5.00;;;1.70;;
28246;SDS011;66191;53.178;22.058;2023-07-31T11:57:07;5.85;;;1.65;;
28246;SDS011;66191;53.178;22.058;2023-07-31T11:59:49;4.80;;;1.67;;
28246;SDS011;66191;53.178;22.058;2023-07-31T12:02:23;5.75;;;1.58;;
28246;SDS011;66191;53.178;22.058;2023-07-31T12:04:58;4.70;;;1.52;;
28246;SDS011;66191;53.178;22.058;2023-07-31T12:07:48;3.33;;;1.33;;
28246;SDS011;66191;53.178;22.058;2023-07-31T12:10:25;2.58;;;1.48;;
28246;SDS011;66191;53.178;22.058;2023-07-31T12:13:01;11.73;;;2.00;;
28246;SDS011;66191;53.178;22.058;2023-07-31T12:15:53;2.42;;;1.33;;
28246;SDS011;66191;53.178;22.058;2023-07-31T12:18:27;4.53;;;1.40;;
28246;SDS011;66191;53.178;22.058;2023-07-31T12:21:07;2.85;;;1.00;;
28246;SDS011;66191;53.178;22.058;2023-07-31T12:23:44;4.82;;;1.30;;
28246;SDS011;66191;53.178;22.058;2023-07-31T12:26:20;4.35;;;1.50;;
28246;SDS011;66191;53.178;22.058;2023-07-31T12:28:54;6.00;;;1.52;;
28246;SDS011;66191;53.178;22.058;2023-07-31T12:31:41;1.42;;;1.00;;
28246;SDS011;66191;53.178;22.058;2023-07-31T12:34:18;5.95;;;1.58;;
28246;SDS011;66191;53.178;22.058;2023-07-31T12:36:55;2.40;;;1.05;;
28246;SDS011;66191;53.178;22.058;2023-07-31T12:39:27;2.88;;;1.23;;
28246;SDS011;66191;53.178;22.058;2023-07-31T12:42:03;2.35;;;1.17;;
28246;SDS011;66191;53.178;22.058;2023-07-31T12:44:38;2.55;;;1.10;;
28246;SDS011;66191;53.178;22.058;2023-07-31T12:47:11;4.40;;;1.30;;
28246;SDS011;66191;53.178;22.058;2023-07-31T12:49:54;4.70;;;1.20;;
28246;SDS011;66191;53.178;22.058;2023-07-31T12:52:31;3.20;;;1.42;;
28246;SDS011;66191;53.178;22.058;2023-07-31T12:55:26;2.50;;;1.42;;
28246;SDS011;66191;53.178;22.058;2023-07-31T12:58:10;8.40;;;1.20;;
28246;SDS011;66191;53.178;22.058;2023-07-31T13:00:42;2.47;;;1.23;;
28246;SDS011;66191;53.178;22.058;2023-07-31T13:03:16;5.20;;;1.40;;
28246;SDS011;66191;53.178;22.058;2023-07-31T13:05:53;4.63;;;1.25;;
28246;SDS011;66191;53.178;22.058;2023-07-31T13:08:31;2.17;;;1.20;;
28246;SDS011;66191;53.178;22.058;2023-07-31T13:11:08;4.03;;;1.15;;
28246;SDS011;66191;53.178;22.058;2023-07-31T13:13:54;4.97;;;1.27;;
28246;SDS011;66191;53.178;22.058;2023-07-31T13:16:27;3.38;;;1.23;;
28246;SDS011;66191;53.178;22.058;2023-07-31T13:19:00;4.85;;;1.33;;
28246;SDS011;66191;53.178;22.058;2023-07-31T13:21:32;2.88;;;0.95;;
28246;SDS011;66191;53.178;22.058;2023-07-31T13:24:09;3.78;;;1.20;;
28246;SDS011;66191;53.178;22.058;2023-07-31T13:26:41;3.20;;;1.10;;
28246;SDS011;66191;53.178;22.058;2023-07-31T13:29:15;1.85;;;0.90;;
28246;SDS011;66191;53.178;22.058;2023-07-31T13:31:48;4.60;;;1.13;;
28246;SDS011;66191;53.178;22.058;2023-07-31T13:34:23;4.60;;;1.00;;
28246;SDS011;66191;53.178;22.058;2023-07-31T13:36:58;3.08;;;1.08;;
28246;SDS011;66191;53.178;22.058;2023-07-31T13:39:32;2.53;;;1.10;;
28246;SDS011;66191;53.178;22.058;2023-07-31T13:42:05;2.33;;;1.23;;
28246;SDS011;66191;53.178;22.058;2023-07-31T13:44:41;2.92;;;1.55;;
28246;SDS011;66191;53.178;22.058;2023-07-31T13:47:18;4.45;;;1.25;;
28246;SDS011;66191;53.178;22.058;2023-07-31T13:49:51;1.85;;;1.15;;
28246;SDS011;66191;53.178;22.058;2023-07-31T13:52:28;4.00;;;1.20;;
28246;SDS011;66191;53.178;22.058;2023-07-31T13:55:24;4.38;;;1.30;;
28246;SDS011;66191;53.178;22.058;2023-07-31T13:58:14;2.25;;;1.08;;
28246;SDS011;66191;53.178;22.058;2023-07-31T14:00:54;3.72;;;1.60;;
28246;SDS011;66191;53.178;22.058;2023-07-31T14:03:39;4.82;;;1.30;;
28246;SDS011;66191;53.178;22.058;2023-07-31T14:06:13;3.25;;;1.52;;
28246;SDS011;66191;53.178;22.058;2023-07-31T14:08:51;4.00;;;1.50;;
28246;SDS011;66191;53.178;22.058;2023-07-31T14:11:25;3.22;;;1.50;;
28246;SDS011;66191;53.178;22.058;2023-07-31T14:13:57;4.38;;;1.30;;
28246;SDS011;66191;53.178;22.058;2023-07-31T14:16:31;5.82;;;1.45;;
28246;SDS011;66191;53.178;22.058;2023-07-31T14:21:45;4.03;;;1.40;;
28246;SDS011;66191;53.178;22.058;2023-07-31T14:24:45;5.33;;;1.43;;
28246;SDS011;66191;53.178;22.058;2023-07-31T14:27:19;3.38;;;1.60;;
28246;SDS011;66191;53.178;22.058;2023-07-31T14:29:54;4.72;;;1.60;;
28246;SDS011;66191;53.178;22.058;2023-07-31T14:32:28;2.70;;;1.55;;
28246;SDS011;66191;53.178;22.058;2023-07-31T14:35:01;3.05;;;1.20;;
28246;SDS011;66191;53.178;22.058;2023-07-31T14:37:36;4.90;;;1.70;;
28246;SDS011;66191;53.178;22.058;2023-07-31T14:40:15;3.03;;;1.30;;
28246;SDS011;66191;53.178;22.058;2023-07-31T14:42:55;4.22;;;1.88;;
28246;SDS011;66191;53.178;22.058;2023-07-31T14:45:29;3.20;;;1.25;;
28246;SDS011;66191;53.178;22.058;2023-07-31T14:48:05;3.10;;;1.30;;
28246;SDS011;66191;53.178;22.058;2023-07-31T14:50:43;4.53;;;1.50;;
28246;SDS011;66191;53.178;22.058;2023-07-31T14:53:17;3.15;;;1.40;;
28246;SDS011;66191;53.178;22.058;2023-07-31T14:55:51;4.85;;;1.27;;
28246;SDS011;66191;53.178;22.058;2023-07-31T14:58:25;5.38;;;1.50;;
28246;SDS011;66191;53.178;22.058;2023-07-31T15:01:01;4.28;;;1.73;;
28246;SDS011;66191;53.178;22.058;2023-07-31T15:03:35;16.15;;;11.50;;
28246;SDS011;66191;53.178;22.058;2023-07-31T15:06:06;24.52;;;17.80;;
28246;SDS011;66191;53.178;22.058;2023-07-31T15:08:40;42.10;;;28.05;;
28246;SDS011;66191;53.178;22.058;2023-07-31T15:11:18;8.55;;;4.82;;
28246;SDS011;66191;53.178;22.058;2023-07-31T15:13:52;28.20;;;14.25;;
28246;SDS011;66191;53.178;22.058;2023-07-31T15:16:26;41.05;;;21.73;;
28246;SDS011;66191;53.178;22.058;2023-07-31T15:19:02;8.35;;;3.70;;
28246;SDS011;66191;53.178;22.058;2023-07-31T15:21:36;6.30;;;2.10;;
28246;SDS011;66191;53.178;22.058;2023-07-31T15:24:10;6.82;;;2.40;;
28246;SDS011;66191;53.178;22.058;2023-07-31T15:26:48;3.67;;;1.60;;
28246;SDS011;66191;53.178;22.058;2023-07-31T15:29:23;4.78;;;1.55;;
28246;SDS011;66191;53.178;22.058;2023-07-31T15:32:13;3.43;;;1.53;;
28246;SDS011;66191;53.178;22.058;2023-07-31T15:34:51;5.45;;;1.23;;
28246;SDS011;66191;53.178;22.058;2023-07-31T15:37:35;3.17;;;1.30;;